createdAt,value
2022-10-24T00:00:47.257Z,99.90
2022-10-24T00:03:50.296Z,99.90
2022-10-24T00:06:52.466Z,99.90
2022-10-24T00:09:54.550Z,99.90
2022-10-24T00:12:56.986Z,99.90
2022-10-24T00:15:59.033Z,99.90
2022-10-24T00:19:01.193Z,99.90
2022-10-24T00:22:04.010Z,99.90
2022-10-24T00:25:06.724Z,99.90
2022-10-24T00:28:14.272Z,99.90
2022-10-24T00:31:18.744Z,99.90
2022-10-24T00:34:20.662Z,99.90
2022-10-24T00:37:22.753Z,99.90
2022-10-24T00:40:25.095Z,99.90
2022-10-24T00:43:28.168Z,99.90
2022-10-24T00:46:30.255Z,99.90
2022-10-24T00:49:47.389Z,99.90
2022-10-24T00:52:49.737Z,99.90
2022-10-24T00:55:55.182Z,99.90
2022-10-24T00:58:59.705Z,99.90
2022-10-24T01:02:02.067Z,99.90
2022-10-24T01:05:05.922Z,99.90
2022-10-24T01:08:44.231Z,99.90
2022-10-24T01:12:15.300Z,99.90
2022-10-24T01:15:35.964Z,99.90
2022-10-24T01:18:47.908Z,99.90
2022-10-24T01:22:01.412Z,99.90
2022-10-24T01:25:10.889Z,99.90
2022-10-24T01:28:22.227Z,99.90
2022-10-24T01:32:00.224Z,99.90
2022-10-24T01:35:21.836Z,99.90
2022-10-24T01:38:23.885Z,99.90
2022-10-24T01:41:29.768Z,99.90
2022-10-24T01:44:41.415Z,99.90
2022-10-24T01:47:49.339Z,99.90
2022-10-24T01:50:54.564Z,99.90
2022-10-24T01:53:57.928Z,99.90
2022-10-24T01:57:00.311Z,99.90
2022-10-24T02:00:02.857Z,99.90
2022-10-24T02:03:08.953Z,99.90
2022-10-24T02:06:19.586Z,99.90
2022-10-24T02:09:22.658Z,99.90
2022-10-24T02:12:27.514Z,99.90
2022-10-24T02:15:38.692Z,99.90
2022-10-24T02:18:41.215Z,99.90
2022-10-24T02:21:58.240Z,99.90
2022-10-24T02:25:11.478Z,99.90
2022-10-24T02:28:20.669Z,99.90
2022-10-24T02:31:24.945Z,99.90
2022-10-24T02:34:32.110Z,99.90
2022-10-24T02:37:39.674Z,99.90
2022-10-24T02:40:44.411Z,99.90
2022-10-24T02:43:49.708Z,99.90
2022-10-24T02:46:54.571Z,99.90
2022-10-24T02:49:56.761Z,99.90
2022-10-24T02:52:58.874Z,99.90
2022-10-24T02:56:01.009Z,99.90
2022-10-24T02:59:03.313Z,99.90
2022-10-24T03:02:05.449Z,99.90
2022-10-24T03:05:07.963Z,99.90
2022-10-24T03:08:10.132Z,99.90
2022-10-24T03:11:12.501Z,99.90
2022-10-24T03:14:14.569Z,99.90
2022-10-24T03:17:16.656Z,99.90
2022-10-24T03:20:18.832Z,99.90
2022-10-24T03:23:22.125Z,99.90
2022-10-24T03:26:24.297Z,99.90
2022-10-24T03:29:26.353Z,99.90
2022-10-24T03:32:28.861Z,99.90
2022-10-24T03:35:31.138Z,99.90
2022-10-24T03:38:33.530Z,99.90
2022-10-24T03:41:35.797Z,99.90
2022-10-24T03:44:37.882Z,99.90
2022-10-24T03:47:40.060Z,99.90
2022-10-24T03:50:44.996Z,99.90
2022-10-24T03:53:47.114Z,99.90
2022-10-24T03:56:50.083Z,99.90
2022-10-24T03:59:52.365Z,99.90
2022-10-24T04:02:54.875Z,99.90
2022-10-24T04:05:57.068Z,99.90
2022-10-24T04:08:59.148Z,99.90
2022-10-24T04:12:01.261Z,99.90
2022-10-24T04:15:06.403Z,99.90
2022-10-24T04:18:09.858Z,99.90
2022-10-24T04:21:12.236Z,99.90
2022-10-24T04:24:15.544Z,99.90
2022-10-24T04:27:17.571Z,99.90
2022-10-24T04:30:19.743Z,99.90
2022-10-24T04:33:21.837Z,99.90
2022-10-24T04:36:24.003Z,99.90
2022-10-24T04:39:26.048Z,99.90
2022-10-24T04:42:28.092Z,99.90
2022-10-24T04:45:30.139Z,99.90
2022-10-24T04:48:32.529Z,99.90
2022-10-24T04:51:34.615Z,99.90
2022-10-24T04:54:36.721Z,99.90
2022-10-24T04:57:39.057Z,99.90
2022-10-24T05:00:43.463Z,99.90
2022-10-24T05:03:45.772Z,99.90
2022-10-24T05:06:47.925Z,99.90
2022-10-24T05:09:50.069Z,99.90
2022-10-24T05:12:52.648Z,99.90
2022-10-24T05:15:54.899Z,99.90
2022-10-24T05:18:57.035Z,99.90
2022-10-24T05:21:59.056Z,99.90
2022-10-24T05:25:01.215Z,99.90
2022-10-24T05:28:03.491Z,99.90
2022-10-24T05:31:07.011Z,99.90
2022-10-24T05:34:09.069Z,99.90
2022-10-24T05:37:11.138Z,99.90
2022-10-24T05:40:13.417Z,99.90
2022-10-24T05:43:16.559Z,99.90
2022-10-24T05:46:19.831Z,99.90
2022-10-24T05:49:22.026Z,99.90
2022-10-24T05:52:24.594Z,99.90
2022-10-24T05:55:26.949Z,99.90
2022-10-24T05:58:30.138Z,99.90
2022-10-24T06:01:34.060Z,99.90
2022-10-24T06:04:36.225Z,99.90
2022-10-24T06:07:39.052Z,99.90
2022-10-24T06:10:41.153Z,99.90
2022-10-24T06:13:43.478Z,99.90
2022-10-24T06:16:45.470Z,99.90
2022-10-24T06:22:56.179Z,99.90
2022-10-24T06:25:58.453Z,99.90
2022-10-24T06:29:00.739Z,99.90
2022-10-24T06:32:03.218Z,99.90
2022-10-24T06:35:06.016Z,99.90
2022-10-24T06:38:08.076Z,99.90
2022-10-24T06:41:13.875Z,99.90
2022-10-24T06:44:16.213Z,99.90
2022-10-24T06:47:18.435Z,99.90
2022-10-24T06:50:20.602Z,99.90
2022-10-24T06:53:22.624Z,99.90
2022-10-24T06:56:24.940Z,99.90
2022-10-24T06:59:27.919Z,99.90
2022-10-24T07:02:30.030Z,99.90
2022-10-24T07:05:32.258Z,99.90
2022-10-24T07:08:34.652Z,99.90
2022-10-24T07:11:36.754Z,99.90
2022-10-24T07:14:38.767Z,99.90
2022-10-24T07:17:42.760Z,99.90
2022-10-24T07:20:44.798Z,99.90
2022-10-24T07:23:47.333Z,99.90
2022-10-24T07:26:49.360Z,99.90
2022-10-24T07:29:51.782Z,99.90
2022-10-24T07:32:55.712Z,99.90
2022-10-24T07:35:57.961Z,99.90
2022-10-24T07:39:01.299Z,99.90
2022-10-24T07:42:04.433Z,99.90
2022-10-24T07:45:07.396Z,99.90
2022-10-24T07:48:10.163Z,99.90
2022-10-24T07:51:14.597Z,99.90
2022-10-24T07:54:16.529Z,99.90
2022-10-24T07:57:18.793Z,99.90
2022-10-24T08:00:21.428Z,99.90
2022-10-24T08:03:24.608Z,99.90
2022-10-24T08:06:30.667Z,99.90
2022-10-24T08:09:33.010Z,99.90
2022-10-24T08:12:35.292Z,99.90
2022-10-24T08:15:38.201Z,99.90
2022-10-24T08:18:40.588Z,99.90
2022-10-24T08:21:45.905Z,99.90
2022-10-24T08:24:47.947Z,99.90
2022-10-24T08:27:50.008Z,99.90
2022-10-24T08:30:56.993Z,99.90
2022-10-24T08:33:59.643Z,99.90
2022-10-24T08:37:01.698Z,99.90
2022-10-24T08:40:09.265Z,99.90
2022-10-24T08:43:12.277Z,99.90
2022-10-24T08:46:33.658Z,99.90
2022-10-24T08:49:46.417Z,99.90
2022-10-24T08:52:55.593Z,99.90
2022-10-24T08:56:00.315Z,99.90
2022-10-24T08:59:04.960Z,99.90
2022-10-24T09:02:21.493Z,99.90
2022-10-24T09:05:30.172Z,99.90
2022-10-24T09:08:58.468Z,99.90
2022-10-24T09:12:03.702Z,99.90
2022-10-24T09:15:14.157Z,99.90
2022-10-24T09:18:25.075Z,99.90
2022-10-24T09:21:27.567Z,99.90
2022-10-24T09:24:41.734Z,99.90
2022-10-24T09:27:44.297Z,99.90
2022-10-24T09:30:47.195Z,99.90
2022-10-24T09:33:52.237Z,99.90
2022-10-24T09:36:54.414Z,99.90
2022-10-24T09:40:33.869Z,99.90
2022-10-24T09:43:51.077Z,99.90
2022-10-24T09:46:53.333Z,99.90
2022-10-24T09:49:56.016Z,99.90
2022-10-24T09:52:59.882Z,99.90
2022-10-24T09:56:09.471Z,99.90
2022-10-24T09:59:27.284Z,99.90
2022-10-24T10:02:36.791Z,99.90
2022-10-24T10:05:49.154Z,99.90
2022-10-24T10:08:56.373Z,99.90
2022-10-24T10:12:03.164Z,99.90
2022-10-24T10:15:29.336Z,99.90
2022-10-24T10:18:41.437Z,99.90
2022-10-24T10:22:04.551Z,99.90
2022-10-24T10:25:06.873Z,99.90
2022-10-24T10:28:23.772Z,99.90
2022-10-24T10:31:38.854Z,99.90
2022-10-24T10:34:53.645Z,99.90
2022-10-24T10:38:22.017Z,99.90
2022-10-24T10:41:47.581Z,99.90
2022-10-24T10:44:49.510Z,99.90
2022-10-24T10:47:58.342Z,99.90
2022-10-24T10:51:39.365Z,99.90
2022-10-24T10:54:47.173Z,99.90
2022-10-24T10:58:04.463Z,99.90
2022-10-24T11:01:30.931Z,99.90
2022-10-24T11:04:54.668Z,99.90
2022-10-24T11:08:13.736Z,99.90
2022-10-24T11:11:40.245Z,99.90
2022-10-24T11:15:21.504Z,99.90
2022-10-24T11:18:33.116Z,99.90
2022-10-24T11:21:39.702Z,99.90
2022-10-24T11:24:53.306Z,99.90
2022-10-24T11:28:15.882Z,99.90
2022-10-24T11:31:32.777Z,99.90
2022-10-24T11:34:42.496Z,99.90
2022-10-24T11:37:50.092Z,99.90
2022-10-24T11:40:58.918Z,99.90
2022-10-24T11:44:18.477Z,99.90
2022-10-24T11:47:26.576Z,99.90
2022-10-24T11:50:34.584Z,99.90
2022-10-24T11:53:38.448Z,99.90
2022-10-24T11:56:55.183Z,99.90
2022-10-24T11:59:58.886Z,99.90
2022-10-24T12:03:27.462Z,99.90
2022-10-24T12:06:47.932Z,99.90
2022-10-24T12:10:16.059Z,99.90
2022-10-24T12:13:29.883Z,99.90
2022-10-24T12:16:46.780Z,99.90
2022-10-24T12:19:50.845Z,99.90
2022-10-24T12:23:02.257Z,99.90
2022-10-24T12:26:19.120Z,99.90
2022-10-24T12:29:25.496Z,99.90
2022-10-24T12:32:41.715Z,99.90
2022-10-24T12:35:44.683Z,99.90
2022-10-24T12:38:59.238Z,99.90
2022-10-24T12:42:02.523Z,99.70
2022-10-24T12:45:04.510Z,99.90
2022-10-24T12:48:31.257Z,99.40
2022-10-24T12:51:40.794Z,99.00
2022-10-24T12:54:45.530Z,98.40
2022-10-24T12:57:47.836Z,97.80
2022-10-24T13:01:03.625Z,98.80
2022-10-24T13:04:33.124Z,97.60
2022-10-24T13:07:57.035Z,98.30
2022-10-24T13:10:59.188Z,98.50
2022-10-24T13:14:25.822Z,98.50
2022-10-24T13:18:00.027Z,98.80
2022-10-24T13:21:15.003Z,99.00
2022-10-24T13:24:17.256Z,98.70
2022-10-24T13:27:29.173Z,98.60
2022-10-24T13:30:31.216Z,98.20
2022-10-24T13:33:33.302Z,98.00
2022-10-24T13:36:36.618Z,97.70
2022-10-24T13:39:46.184Z,98.30
2022-10-24T13:42:55.735Z,97.90
2022-10-24T13:46:13.260Z,97.70
2022-10-24T13:49:23.745Z,97.50
2022-10-24T13:52:58.212Z,98.20
2022-10-24T13:56:10.695Z,98.20
2022-10-24T13:59:33.545Z,97.90
2022-10-24T14:02:40.407Z,98.10
2022-10-24T14:05:48.272Z,98.70
2022-10-24T14:09:02.766Z,98.20
2022-10-24T14:12:17.617Z,97.90
2022-10-24T14:15:24.131Z,97.60
2022-10-24T14:18:26.792Z,97.20
2022-10-24T14:21:39.160Z,97.20
2022-10-24T14:24:44.293Z,97.20
2022-10-24T14:27:46.593Z,97.10
2022-10-24T14:31:01.620Z,96.80
2022-10-24T14:34:09.731Z,97.50
2022-10-24T14:37:19.781Z,97.50
2022-10-24T14:40:21.978Z,97.80
2022-10-24T14:43:29.912Z,98.30
2022-10-24T14:46:39.776Z,98.80
2022-10-24T14:49:41.850Z,98.40
2022-10-24T14:52:45.609Z,98.90
2022-10-24T14:55:56.847Z,98.80
2022-10-24T14:59:02.110Z,98.50
2022-10-24T15:02:18.800Z,98.80
2022-10-24T15:05:24.617Z,98.50
2022-10-24T15:08:43.311Z,98.60
2022-10-24T15:11:47.762Z,98.80
2022-10-24T15:14:51.852Z,99.20
2022-10-24T15:17:59.140Z,98.90
2022-10-24T15:21:12.951Z,98.70
2022-10-24T15:24:33.011Z,98.60
2022-10-24T15:27:41.259Z,98.70
2022-10-24T15:30:43.545Z,98.90
2022-10-24T15:33:46.604Z,98.90
2022-10-24T15:36:51.205Z,98.60
2022-10-24T15:39:54.248Z,98.40
2022-10-24T15:42:56.857Z,98.40
2022-10-24T15:45:58.995Z,98.60
2022-10-24T15:49:01.082Z,99.00
2022-10-24T15:52:07.540Z,98.80
2022-10-24T15:55:18.204Z,99.50
2022-10-24T15:58:20.366Z,99.30
2022-10-24T16:01:35.006Z,99.10
2022-10-24T16:04:40.445Z,98.70
2022-10-24T16:07:42.673Z,99.10
2022-10-24T16:10:46.156Z,98.50
2022-10-24T16:13:48.711Z,98.90
2022-10-24T16:16:50.839Z,98.60
2022-10-24T16:19:52.847Z,98.90
2022-10-24T16:22:55.593Z,99.00
2022-10-24T16:25:57.765Z,98.10
2022-10-24T16:28:59.914Z,98.70
2022-10-24T16:32:02.016Z,99.10
2022-10-24T16:35:04.347Z,99.40
2022-10-24T16:38:08.818Z,99.30
2022-10-24T16:41:16.447Z,99.50
2022-10-24T16:44:18.520Z,99.10
2022-10-24T16:47:21.069Z,99.00
2022-10-24T16:50:27.023Z,99.00
2022-10-24T16:53:29.125Z,99.00
2022-10-24T16:56:31.393Z,99.20
2022-10-24T16:59:33.388Z,99.30
2022-10-24T17:02:35.951Z,99.60
2022-10-24T17:05:38.706Z,99.90
2022-10-24T17:08:41.477Z,99.90
2022-10-24T17:11:46.070Z,99.90
2022-10-24T17:14:48.735Z,99.90
2022-10-24T17:17:50.918Z,99.90
2022-10-24T17:21:00.369Z,99.90
2022-10-24T17:24:02.668Z,99.90
2022-10-24T17:27:04.920Z,99.90
2022-10-24T17:30:07.827Z,99.90
2022-10-24T17:33:13.413Z,99.90
2022-10-24T17:36:29.355Z,99.90
2022-10-24T17:40:02.306Z,99.90
2022-10-24T17:43:04.556Z,99.90
2022-10-24T17:46:11.189Z,99.90
2022-10-24T17:49:17.865Z,99.90
2022-10-24T17:52:24.273Z,99.90
2022-10-24T17:55:45.107Z,99.90
2022-10-24T17:58:51.216Z,99.90
2022-10-24T18:01:53.480Z,99.90
2022-10-24T18:04:55.775Z,99.90
2022-10-24T18:07:58.157Z,99.90
2022-10-24T18:11:05.662Z,99.90
2022-10-24T18:14:07.965Z,99.90
2022-10-24T18:17:10.035Z,99.90
2022-10-24T18:20:13.156Z,99.90
2022-10-24T18:23:15.608Z,99.90
2022-10-24T18:26:20.342Z,99.90
2022-10-24T18:29:22.460Z,99.90
2022-10-24T18:32:24.592Z,99.90
2022-10-24T18:35:28.181Z,99.90
2022-10-24T18:38:34.711Z,99.90
2022-10-24T18:41:48.931Z,99.90
2022-10-24T18:44:51.621Z,99.90
2022-10-24T18:47:54.593Z,99.90
2022-10-24T18:50:56.874Z,99.90
2022-10-24T18:54:06.604Z,99.90
2022-10-24T18:57:26.865Z,99.90
2022-10-24T19:00:31.372Z,99.90
2022-10-24T19:03:37.146Z,99.90
2022-10-24T19:06:41.650Z,99.90
2022-10-24T19:09:43.888Z,99.90
2022-10-24T19:12:46.305Z,99.90
2022-10-24T19:15:58.401Z,99.90
2022-10-24T19:19:02.206Z,99.90
2022-10-24T19:22:04.272Z,99.90
2022-10-24T19:25:06.824Z,99.90
2022-10-24T19:28:11.895Z,99.90
2022-10-24T19:31:15.127Z,99.90
2022-10-24T19:34:17.258Z,99.90
2022-10-24T19:37:20.053Z,99.90
2022-10-24T19:40:22.125Z,99.90
2022-10-24T19:43:26.826Z,99.90
2022-10-24T19:46:29.111Z,99.90
2022-10-24T19:49:31.153Z,99.90
2022-10-24T19:52:33.151Z,99.90
2022-10-24T19:55:39.023Z,99.90
2022-10-24T19:58:41.922Z,99.90
2022-10-24T20:01:43.989Z,99.90
2022-10-24T20:04:49.251Z,99.90
2022-10-24T20:07:51.466Z,99.90
2022-10-24T20:10:53.809Z,99.90
2022-10-24T20:13:57.397Z,99.90
2022-10-24T20:17:01.263Z,99.90
2022-10-24T20:20:04.648Z,99.90
2022-10-24T20:23:07.751Z,99.90
2022-10-24T20:26:17.148Z,99.90
2022-10-24T20:29:20.155Z,99.90
2022-10-24T20:32:24.812Z,99.90
2022-10-24T20:35:29.342Z,99.90
2022-10-24T20:38:34.967Z,99.90
2022-10-24T20:41:39.253Z,99.90
2022-10-24T20:44:41.266Z,99.90
2022-10-24T20:47:43.696Z,99.90
2022-10-24T20:50:45.914Z,99.90
2022-10-24T20:53:48.590Z,99.90
2022-10-24T20:56:50.606Z,99.90
2022-10-24T20:59:52.765Z,99.90
2022-10-24T21:02:54.814Z,99.90
2022-10-24T21:05:57.344Z,99.90
2022-10-24T21:12:12.222Z,99.90
2022-10-24T21:15:18.369Z,99.90
2022-10-24T21:18:20.799Z,99.90
2022-10-24T21:21:23.155Z,99.90
2022-10-24T21:24:25.658Z,99.90
2022-10-24T21:27:27.950Z,99.90
2022-10-24T21:30:30.197Z,99.90
2022-10-24T21:33:33.407Z,99.90
2022-10-24T21:36:35.543Z,99.90
2022-10-24T21:39:37.958Z,99.90
2022-10-24T21:42:40.166Z,99.90
2022-10-24T21:45:42.334Z,99.90
2022-10-24T21:48:45.715Z,99.90
2022-10-24T21:51:48.845Z,99.90
2022-10-24T21:54:51.038Z,99.90
2022-10-24T21:57:53.118Z,99.90
2022-10-24T22:00:55.490Z,99.90
2022-10-24T22:04:00.169Z,99.90
2022-10-24T22:07:03.186Z,99.90
2022-10-24T22:10:05.900Z,99.90
2022-10-24T22:13:07.997Z,99.90
2022-10-24T22:16:11.466Z,99.90
2022-10-24T22:19:14.350Z,99.90
2022-10-24T22:22:16.979Z,99.90
2022-10-24T22:25:19.166Z,99.90
2022-10-24T22:28:21.751Z,99.90
2022-10-24T22:31:27.476Z,99.90
2022-10-24T22:34:29.882Z,99.90
2022-10-24T22:37:36.339Z,99.90
2022-10-24T22:40:38.605Z,99.90
2022-10-24T22:43:40.947Z,99.90
2022-10-24T22:47:11.016Z,99.90
2022-10-24T22:50:21.863Z,99.90
2022-10-24T22:53:27.544Z,99.90
2022-10-24T22:56:34.227Z,99.90
2022-10-24T22:59:36.966Z,99.90
2022-10-24T23:02:45.868Z,99.90
2022-10-24T23:05:56.625Z,99.90
2022-10-24T23:08:58.852Z,99.90
2022-10-24T23:12:01.440Z,99.90
2022-10-24T23:15:04.498Z,99.90
2022-10-24T23:18:09.632Z,99.90
2022-10-24T23:21:28.334Z,99.90
2022-10-24T23:24:30.620Z,99.90
2022-10-24T23:27:41.423Z,99.90
2022-10-24T23:30:43.654Z,99.90
2022-10-24T23:33:46.243Z,99.90
2022-10-24T23:36:49.601Z,99.90
2022-10-24T23:39:52.058Z,99.90
2022-10-24T23:42:54.950Z,99.90
2022-10-24T23:46:06.351Z,99.90
2022-10-24T23:49:29.419Z,99.90
2022-10-24T23:52:40.822Z,99.90
2022-10-24T23:55:43.306Z,99.90
2022-10-24T23:58:45.692Z,99.90
